createdAt,value
2018-05-10T00:00:07.025Z,0
2018-05-10T00:01:06.801Z,0
2018-05-10T00:02:07.336Z,0
2018-05-10T00:03:07.103Z,0
2018-05-10T00:04:07.089Z,0
2018-05-10T00:05:07.419Z,0
2018-05-10T00:06:07.479Z,0
2018-05-10T00:07:07.494Z,0
2018-05-10T00:08:07.216Z,0
2018-05-10T00:09:07.225Z,0
2018-05-10T00:10:07.252Z,0
2018-05-10T00:11:07.280Z,0
2018-05-10T00:12:07.291Z,0
2018-05-10T00:13:07.566Z,0
2018-05-10T00:14:07.370Z,0
2018-05-10T00:15:07.638Z,0
2018-05-10T00:16:07.643Z,0
2018-05-10T00:17:07.665Z,0
2018-05-10T00:18:07.678Z,0
2018-05-10T00:19:07.201Z,0
2018-05-10T00:20:07.461Z,0
2018-05-10T00:21:07.227Z,0
2018-05-10T00:22:07.918Z,0
2018-05-10T00:23:07.294Z,0
2018-05-10T00:24:07.561Z,0
2018-05-10T00:25:07.631Z,0
2018-05-10T00:26:07.607Z,0
2018-05-10T00:27:07.363Z,0
2018-05-10T00:28:07.417Z,0
2018-05-10T00:29:07.681Z,0
2018-05-10T00:30:07.987Z,0
2018-05-10T00:31:08.061Z,0
2018-05-10T00:32:08.036Z,0
2018-05-10T00:33:07.235Z,0
2018-05-10T00:34:08.074Z,0
2018-05-10T00:35:07.564Z,0
2018-05-10T00:36:07.642Z,0
2018-05-10T00:37:07.602Z,0
2018-05-10T00:38:08.280Z,0
2018-05-10T00:39:07.650Z,0
2018-05-10T00:40:07.658Z,0
2018-05-10T00:41:08.045Z,0
2018-05-10T00:42:07.742Z,0
2018-05-10T00:43:07.740Z,0
2018-05-10T00:44:08.098Z,0
2018-05-10T00:45:08.315Z,0
2018-05-10T00:46:08.361Z,0
2018-05-10T00:47:08.401Z,0
2018-05-10T00:48:08.419Z,0
2018-05-10T00:49:08.152Z,0
2018-05-10T00:50:08.184Z,0
2018-05-10T00:51:08.237Z,0
2018-05-10T00:52:08.489Z,0
2018-05-10T00:53:08.514Z,0
2018-05-10T00:54:08.306Z,0
2018-05-10T00:55:08.032Z,0
2018-05-10T00:56:08.314Z,0
2018-05-10T00:57:08.608Z,0
2018-05-10T00:58:08.621Z,0
2018-05-10T00:59:08.116Z,0
2018-05-10T01:00:08.418Z,0
2018-05-10T01:01:08.437Z,0
2018-05-10T01:02:08.201Z,0
2018-05-10T01:03:08.929Z,0
2018-05-10T01:04:08.511Z,0
2018-05-10T01:05:08.300Z,0
2018-05-10T01:06:08.527Z,0
2018-05-10T01:07:08.545Z,0
2018-05-10T01:08:08.870Z,0
2018-05-10T01:09:08.624Z,0
2018-05-10T01:10:08.373Z,0
2018-05-10T01:11:08.942Z,0
2018-05-10T01:12:08.738Z,0
2018-05-10T01:13:08.983Z,0
2018-05-10T01:14:08.726Z,0
2018-05-10T01:15:08.500Z,0
2018-05-10T01:16:08.789Z,0
2018-05-10T01:17:08.816Z,0
2018-05-10T01:18:08.553Z,0
2018-05-10T01:19:08.855Z,0
2018-05-10T01:20:09.034Z,0
2018-05-10T01:21:09.178Z,0
2018-05-10T01:22:08.698Z,0
2018-05-10T01:23:08.967Z,0
2018-05-10T01:24:08.950Z,0
2018-05-10T01:25:09.581Z,0
2018-05-10T01:26:09.059Z,0
2018-05-10T01:27:08.749Z,0
2018-05-10T01:28:09.040Z,0
2018-05-10T01:29:09.351Z,0
2018-05-10T01:30:09.370Z,0
2018-05-10T01:31:09.406Z,0
2018-05-10T01:32:09.471Z,0
2018-05-10T01:33:09.205Z,0
2018-05-10T01:34:09.489Z,0
2018-05-10T01:35:09.220Z,0
2018-05-10T01:36:09.225Z,0
2018-05-10T01:37:09.301Z,0
2018-05-10T01:38:09.009Z,0
2018-05-10T01:39:09.309Z,0
2018-05-10T01:40:09.339Z,0
2018-05-10T01:41:09.646Z,0
2018-05-10T01:42:09.633Z,0
2018-05-10T01:43:09.404Z,0
2018-05-10T01:44:09.435Z,0
2018-05-10T01:45:09.189Z,0
2018-05-10T01:46:09.465Z,0
2018-05-10T01:47:09.736Z,0
2018-05-10T01:48:09.510Z,0
2018-05-10T01:49:09.569Z,0
2018-05-10T01:50:09.535Z,0
2018-05-10T01:51:09.665Z,0
2018-05-10T01:52:09.671Z,0
2018-05-10T01:53:09.916Z,0
2018-05-10T01:54:09.649Z,0
2018-05-10T01:55:09.912Z,0
2018-05-10T01:56:09.958Z,0
2018-05-10T01:57:09.978Z,0
2018-05-10T01:58:09.744Z,0
2018-05-10T01:59:09.495Z,0
2018-05-10T02:00:09.778Z,0
2018-05-10T02:01:10.093Z,0
2018-05-10T02:02:09.552Z,0
2018-05-10T02:03:09.594Z,0
2018-05-10T02:04:09.868Z,0
2018-05-10T02:05:10.192Z,0
2018-05-10T02:06:09.920Z,0
2018-05-10T02:07:10.012Z,0
2018-05-10T02:08:09.943Z,0
2018-05-10T02:09:09.735Z,0
2018-05-10T02:10:10.256Z,0
2018-05-10T02:11:10.018Z,0
2018-05-10T02:12:10.066Z,0
2018-05-10T02:13:09.790Z,0
2018-05-10T02:14:10.083Z,0
2018-05-10T02:15:10.369Z,0
2018-05-10T02:16:10.151Z,0
2018-05-10T02:17:10.437Z,0
2018-05-10T02:18:10.201Z,0
2018-05-10T02:19:09.922Z,0
2018-05-10T02:20:10.218Z,0
2018-05-10T02:21:10.267Z,0
2018-05-10T02:22:10.269Z,0
2018-05-10T02:23:10.297Z,0
2018-05-10T02:24:10.599Z,0
2018-05-10T02:25:10.072Z,0
2018-05-10T02:26:10.379Z,0
2018-05-10T02:27:10.404Z,0
2018-05-10T02:28:10.658Z,0
2018-05-10T02:29:10.448Z,0
2018-05-10T02:30:10.481Z,0
2018-05-10T02:31:10.490Z,0
2018-05-10T02:32:10.501Z,0
2018-05-10T02:33:10.825Z,0
2018-05-10T02:34:10.528Z,0
2018-05-10T02:35:10.831Z,0
2018-05-10T02:36:10.863Z,0
2018-05-10T02:37:10.639Z,0
2018-05-10T02:38:10.909Z,0
2018-05-10T02:39:10.924Z,0
2018-05-10T02:40:10.684Z,0
2018-05-10T02:41:10.977Z,0
2018-05-10T02:42:11.007Z,0
2018-05-10T02:43:11.040Z,0
2018-05-10T02:44:10.775Z,0
2018-05-10T02:45:11.420Z,0
2018-05-10T02:46:10.843Z,0
2018-05-10T02:47:10.574Z,0
2018-05-10T02:48:11.151Z,0
2018-05-10T02:49:11.152Z,0
2018-05-10T02:50:10.636Z,0
2018-05-10T02:51:11.212Z,0
2018-05-10T02:52:11.228Z,0
2018-05-10T02:53:11.231Z,0
2018-05-10T02:54:11.249Z,0
2018-05-10T02:55:11.040Z,0
2018-05-10T02:56:11.323Z,0
2018-05-10T02:57:11.346Z,0
2018-05-10T02:58:10.801Z,0
2018-05-10T02:59:11.378Z,0
2018-05-10T03:00:11.153Z,0
2018-05-10T03:01:11.154Z,0
2018-05-10T03:02:11.448Z,0
2018-05-10T03:03:11.227Z,0
2018-05-10T03:04:11.486Z,0
2018-05-10T03:05:11.231Z,0
2018-05-10T03:06:11.275Z,0
2018-05-10T03:07:11.298Z,4
2018-05-10T03:08:11.318Z,4
2018-05-10T03:09:11.328Z,0
2018-05-10T03:10:11.632Z,0
2018-05-10T03:11:11.649Z,4
2018-05-10T03:12:11.711Z,4
2018-05-10T03:13:11.689Z,4
2018-05-10T03:14:11.713Z,4
2018-05-10T03:15:11.517Z,4
2018-05-10T03:16:11.212Z,8
2018-05-10T03:17:11.509Z,4
2018-05-10T03:18:11.526Z,8
2018-05-10T03:19:11.528Z,12
2018-05-10T03:20:11.842Z,8
2018-05-10T03:21:11.880Z,12
2018-05-10T03:22:11.626Z,12
2018-05-10T03:23:11.876Z,12
2018-05-10T03:24:11.938Z,16
2018-05-10T03:25:11.959Z,16
2018-05-10T03:26:11.977Z,16
2018-05-10T03:27:11.733Z,20
2018-05-10T03:28:12.013Z,24
2018-05-10T03:29:12.061Z,24
2018-05-10T03:30:11.796Z,24
2018-05-10T03:31:12.094Z,28
2018-05-10T03:32:11.564Z,32
2018-05-10T03:33:11.949Z,32
2018-05-10T03:34:11.866Z,36
2018-05-10T03:35:11.907Z,36
2018-05-10T03:36:11.917Z,40
2018-05-10T03:37:12.228Z,44
2018-05-10T03:38:12.204Z,48
2018-05-10T03:39:12.242Z,48
2018-05-10T03:40:11.730Z,52
2018-05-10T03:41:12.293Z,52
2018-05-10T03:42:12.070Z,56
2018-05-10T03:43:12.088Z,60
2018-05-10T03:44:11.837Z,64
2018-05-10T03:45:12.375Z,68
2018-05-10T03:46:12.420Z,72
2018-05-10T03:47:12.152Z,72
2018-05-10T03:48:12.466Z,76
2018-05-10T03:49:12.222Z,80
2018-05-10T03:50:11.964Z,80
2018-05-10T03:51:12.515Z,84
2018-05-10T03:52:12.257Z,88
2018-05-10T03:53:12.608Z,92
2018-05-10T03:54:12.550Z,96
2018-05-10T03:55:12.636Z,100
2018-05-10T03:56:12.664Z,100
2018-05-10T03:57:12.638Z,104
2018-05-10T03:58:12.688Z,108
2018-05-10T03:59:13.003Z,112
2018-05-10T04:00:11.915Z,112
2018-05-10T04:01:12.201Z,116
2018-05-10T04:02:12.494Z,120
2018-05-10T04:03:12.236Z,124
2018-05-10T04:04:12.519Z,128
2018-05-10T04:05:12.535Z,132
2018-05-10T04:06:12.828Z,132
2018-05-10T04:07:12.854Z,136
2018-05-10T04:08:12.889Z,140
2018-05-10T04:09:12.923Z,140
2018-05-10T04:10:12.900Z,144
2018-05-10T04:11:12.948Z,148
2018-05-10T04:12:12.971Z,148
2018-05-10T04:13:12.813Z,152
2018-05-10T04:14:13.069Z,152
2018-05-10T04:15:12.767Z,160
2018-05-10T04:16:12.881Z,160
2018-05-10T04:17:12.798Z,164
2018-05-10T04:18:13.101Z,168
2018-05-10T04:19:12.860Z,172
2018-05-10T04:20:12.881Z,172
2018-05-10T04:21:13.147Z,180
2018-05-10T04:22:12.656Z,176
2018-05-10T04:23:12.933Z,180
2018-05-10T04:24:12.980Z,184
2018-05-10T04:25:13.064Z,192
2018-05-10T04:26:13.276Z,192
2018-05-10T04:27:13.343Z,192
2018-05-10T04:28:13.024Z,196
2018-05-10T04:29:13.323Z,200
2018-05-10T04:30:13.091Z,200
2018-05-10T04:31:12.825Z,204
2018-05-10T04:32:13.398Z,204
2018-05-10T04:33:13.147Z,208
2018-05-10T04:34:13.170Z,208
2018-05-10T04:35:13.186Z,216
2018-05-10T04:36:13.214Z,216
2018-05-10T04:37:13.598Z,220
2018-05-10T04:38:13.273Z,220
2018-05-10T04:39:13.549Z,220
2018-05-10T04:40:13.297Z,228
2018-05-10T04:41:13.666Z,228
2018-05-10T04:42:13.730Z,232
2018-05-10T04:43:13.634Z,232
2018-05-10T04:44:13.415Z,232
2018-05-10T04:45:13.757Z,240
2018-05-10T04:46:13.687Z,240
2018-05-10T04:47:13.745Z,244
2018-05-10T04:48:13.219Z,244
2018-05-10T04:49:13.473Z,248
2018-05-10T04:50:13.791Z,248
2018-05-10T04:51:13.275Z,252
2018-05-10T04:52:13.289Z,252
2018-05-10T04:53:13.591Z,256
2018-05-10T04:54:13.617Z,256
2018-05-10T04:55:13.647Z,260
2018-05-10T04:56:13.641Z,260
2018-05-10T04:57:13.931Z,260
2018-05-10T04:58:13.674Z,264
2018-05-10T04:59:13.706Z,264
2018-05-10T05:00:14.010Z,268
2018-05-10T05:01:14.033Z,272
2018-05-10T05:02:14.055Z,272
2018-05-10T05:03:13.539Z,272
2018-05-10T05:04:14.136Z,276
2018-05-10T05:05:14.117Z,280
2018-05-10T05:06:13.593Z,280
2018-05-10T05:07:13.621Z,280
2018-05-10T05:08:14.171Z,284
2018-05-10T05:09:14.347Z,284
2018-05-10T05:10:14.209Z,288
2018-05-10T05:11:13.961Z,288
2018-05-10T05:12:14.253Z,292
2018-05-10T05:13:14.283Z,288
2018-05-10T05:14:14.391Z,296
2018-05-10T05:15:14.334Z,296
2018-05-10T05:16:14.352Z,296
2018-05-10T05:17:14.082Z,300
2018-05-10T05:18:13.855Z,300
2018-05-10T05:19:14.436Z,300
2018-05-10T05:20:14.231Z,304
2018-05-10T05:21:14.458Z,308
2018-05-10T05:22:14.201Z,304
2018-05-10T05:23:14.475Z,304
2018-05-10T05:24:14.263Z,308
2018-05-10T05:25:14.519Z,312
2018-05-10T05:26:14.308Z,308
2018-05-10T05:27:14.311Z,312
2018-05-10T05:28:14.320Z,312
2018-05-10T05:29:14.635Z,316
2018-05-10T05:30:14.390Z,316
2018-05-10T05:31:14.142Z,320
2018-05-10T05:32:14.711Z,320
2018-05-10T05:33:14.450Z,324
2018-05-10T05:34:14.497Z,324
2018-05-10T05:35:14.722Z,324
2018-05-10T05:36:14.791Z,328
2018-05-10T05:37:14.517Z,328
2018-05-10T05:38:14.562Z,328
2018-05-10T05:39:14.559Z,328
2018-05-10T05:40:14.603Z,332
2018-05-10T05:41:15.418Z,328
2018-05-10T05:42:14.904Z,332
2018-05-10T05:43:15.104Z,332
2018-05-10T05:44:14.380Z,336
2018-05-10T05:45:14.696Z,336
2018-05-10T05:46:14.714Z,340
2018-05-10T05:47:14.470Z,340
2018-05-10T05:48:15.012Z,340
2018-05-10T05:49:15.043Z,340
2018-05-10T05:50:15.086Z,344
2018-05-10T05:51:14.919Z,344
2018-05-10T05:52:14.828Z,344
2018-05-10T05:53:15.131Z,344
2018-05-10T05:54:14.878Z,348
2018-05-10T05:55:15.076Z,348
2018-05-10T05:56:14.637Z,352
2018-05-10T05:57:15.241Z,352
2018-05-10T05:58:14.722Z,348
2018-05-10T05:59:14.988Z,344
2018-05-10T06:00:14.733Z,352
2018-05-10T06:01:15.017Z,356
2018-05-10T06:02:15.102Z,352
2018-05-10T06:03:15.086Z,356
2018-05-10T06:04:15.075Z,356
2018-05-10T06:05:15.390Z,360
2018-05-10T06:06:15.132Z,360
2018-05-10T06:07:15.450Z,360
2018-05-10T06:08:15.438Z,360
2018-05-10T06:09:15.467Z,364
2018-05-10T06:10:14.950Z,368
2018-05-10T06:11:15.523Z,368
2018-05-10T06:12:15.284Z,372
2018-05-10T06:13:15.039Z,376
2018-05-10T06:14:15.591Z,376
2018-05-10T06:15:15.322Z,380
2018-05-10T06:16:15.361Z,376
2018-05-10T06:17:15.402Z,380
2018-05-10T06:18:15.129Z,380
2018-05-10T06:19:15.697Z,388
2018-05-10T06:20:15.738Z,396
2018-05-10T06:21:15.757Z,404
2018-05-10T06:22:15.211Z,412
2018-05-10T06:23:15.230Z,416
2018-05-10T06:24:15.519Z,432
2018-05-10T06:25:16.172Z,444
2018-05-10T06:26:15.861Z,448
2018-05-10T06:27:15.616Z,448
2018-05-10T06:28:15.882Z,444
2018-05-10T06:29:15.630Z,440
2018-05-10T06:30:15.924Z,432
2018-05-10T06:31:15.658Z,428
2018-05-10T06:32:15.971Z,424
2018-05-10T06:33:16.014Z,424
2018-05-10T06:34:16.027Z,424
2018-05-10T06:35:15.773Z,424
2018-05-10T06:36:16.078Z,428
2018-05-10T06:37:16.085Z,428
2018-05-10T06:38:16.093Z,424
2018-05-10T06:39:15.839Z,428
2018-05-10T06:40:15.609Z,436
2018-05-10T06:41:15.620Z,440
2018-05-10T06:42:16.173Z,432
2018-05-10T06:43:16.227Z,428
2018-05-10T06:44:16.239Z,432
2018-05-10T06:45:16.265Z,440
2018-05-10T06:46:16.283Z,444
2018-05-10T06:47:16.043Z,440
2018-05-10T06:48:16.313Z,432
2018-05-10T06:49:16.362Z,428
2018-05-10T06:50:15.814Z,428
2018-05-10T06:51:16.389Z,440
2018-05-10T06:52:16.468Z,436
2018-05-10T06:53:16.446Z,456
2018-05-10T06:54:16.172Z,468
2018-05-10T06:55:16.509Z,484
2018-05-10T06:56:17.847Z,516
2018-05-10T06:57:16.004Z,572
2018-05-10T06:58:16.247Z,640
2018-05-10T06:59:16.332Z,696
2018-05-10T07:00:16.698Z,732
2018-05-10T07:01:16.704Z,756
2018-05-10T07:02:16.083Z,808
2018-05-10T07:03:16.381Z,864
2018-05-10T07:04:16.384Z,936
2018-05-10T07:05:16.474Z,1016
2018-05-10T07:06:16.700Z,1108
2018-05-10T07:07:16.737Z,1196
2018-05-10T07:08:16.473Z,1284
2018-05-10T07:09:16.541Z,1372
2018-05-10T07:10:16.869Z,1436
2018-05-10T07:11:16.540Z,1484
2018-05-10T07:12:16.825Z,1528
2018-05-10T07:13:16.836Z,1552
2018-05-10T07:14:16.891Z,1548
2018-05-10T07:15:16.620Z,1512
2018-05-10T07:16:16.667Z,1452
2018-05-10T07:17:16.955Z,1376
2018-05-10T07:18:16.444Z,1288
2018-05-10T07:19:17.072Z,1208
2018-05-10T07:20:16.764Z,1136
2018-05-10T07:21:17.065Z,1052
2018-05-10T07:22:17.073Z,928
2018-05-10T07:23:16.813Z,812
2018-05-10T07:24:17.137Z,772
2018-05-10T07:25:17.707Z,720
2018-05-10T07:26:16.626Z,704
2018-05-10T07:27:16.907Z,700
2018-05-10T07:28:16.664Z,724
2018-05-10T07:29:17.240Z,772
2018-05-10T07:30:17.256Z,820
2018-05-10T07:31:17.259Z,868
2018-05-10T07:32:17.019Z,884
2018-05-10T07:33:17.296Z,896
2018-05-10T07:34:17.310Z,916
2018-05-10T07:35:17.129Z,916
2018-05-10T07:36:17.092Z,936
2018-05-10T07:37:17.128Z,980
2018-05-10T07:38:16.883Z,1028
2018-05-10T07:39:17.174Z,1068
2018-05-10T07:40:16.947Z,1080
2018-05-10T07:41:17.476Z,1080
2018-05-10T07:42:17.743Z,1088
2018-05-10T07:43:16.975Z,1088
2018-05-10T07:44:17.293Z,1080
2018-05-10T07:45:17.570Z,1104
2018-05-10T07:46:17.307Z,1160
2018-05-10T07:47:17.265Z,1220
2018-05-10T07:48:17.662Z,1312
2018-05-10T07:49:17.677Z,1416
2018-05-10T07:50:17.751Z,1476
2018-05-10T07:51:17.729Z,1492
2018-05-10T07:52:17.474Z,1464
2018-05-10T07:53:17.818Z,1424
2018-05-10T07:54:17.525Z,1308
2018-05-10T07:55:17.837Z,1160
2018-05-10T07:56:17.569Z,1108
2018-05-10T07:57:17.578Z,1096
2018-05-10T07:58:17.886Z,1088
2018-05-10T07:59:17.630Z,1072
2018-05-10T08:00:17.977Z,1028
2018-05-10T08:01:17.935Z,964
2018-05-10T08:02:18.278Z,888
2018-05-10T08:03:18.008Z,812
2018-05-10T08:04:18.025Z,760
2018-05-10T08:05:17.836Z,732
2018-05-10T08:06:18.068Z,724
2018-05-10T08:07:17.799Z,732
2018-05-10T08:08:18.107Z,744
2018-05-10T08:09:18.143Z,756
2018-05-10T08:10:18.444Z,768
2018-05-10T08:11:18.195Z,784
2018-05-10T08:12:17.651Z,796
2018-05-10T08:13:18.210Z,792
2018-05-10T08:14:17.990Z,788
2018-05-10T08:15:18.300Z,784
2018-05-10T08:16:17.502Z,772
2018-05-10T08:17:18.589Z,764
2018-05-10T08:18:18.356Z,760
2018-05-10T08:19:18.382Z,756
2018-05-10T08:20:18.394Z,760
2018-05-10T08:21:18.431Z,760
2018-05-10T08:22:18.168Z,760
2018-05-10T08:23:18.464Z,756
2018-05-10T08:24:18.735Z,756
2018-05-10T08:25:18.266Z,752
2018-05-10T08:26:18.280Z,756
2018-05-10T08:27:18.311Z,764
2018-05-10T08:28:18.055Z,776
2018-05-10T08:29:18.346Z,780
2018-05-10T08:30:18.326Z,792
2018-05-10T08:31:18.455Z,804
2018-05-10T08:32:18.689Z,812
2018-05-10T08:33:18.190Z,824
2018-05-10T08:34:18.738Z,836
2018-05-10T08:35:18.749Z,844
2018-05-10T08:36:18.519Z,848
2018-05-10T08:37:18.811Z,864
2018-05-10T08:38:18.309Z,864
2018-05-10T08:39:18.594Z,940
2018-05-10T08:40:18.902Z,1008
2018-05-10T08:41:18.707Z,1088
2018-05-10T08:42:18.921Z,1176
2018-05-10T08:43:18.685Z,1292
2018-05-10T08:44:18.732Z,1436
2018-05-10T08:45:19.029Z,1500
2018-05-10T08:46:18.806Z,1564
2018-05-10T08:47:18.808Z,1676
2018-05-10T08:48:18.825Z,1856
2018-05-10T08:49:18.573Z,1984
2018-05-10T08:50:18.574Z,2000
2018-05-10T08:51:18.889Z,2172
2018-05-10T08:52:18.907Z,2328
2018-05-10T08:53:18.670Z,2436
2018-05-10T08:54:19.238Z,2356
2018-05-10T08:55:18.728Z,2080
2018-05-10T08:56:19.072Z,1832
2018-05-10T08:57:18.785Z,1672
2018-05-10T08:58:19.051Z,1568
2018-05-10T08:59:19.355Z,1492
2018-05-10T09:00:19.121Z,1348
2018-05-10T09:01:19.489Z,1340
2018-05-10T09:02:19.442Z,1156
2018-05-10T09:03:19.184Z,1164
2018-05-10T09:04:19.479Z,1012
2018-05-10T09:05:19.509Z,928
2018-05-10T09:06:18.981Z,960
2018-05-10T09:07:19.374Z,1028
2018-05-10T09:08:19.583Z,1060
2018-05-10T09:09:19.352Z,1096
2018-05-10T09:10:19.668Z,1164
2018-05-10T09:11:19.762Z,1212
2018-05-10T09:12:19.700Z,1240
2018-05-10T09:13:18.894Z,1220
2018-05-10T09:14:19.458Z,1156
2018-05-10T09:15:19.493Z,1100
2018-05-10T09:16:19.500Z,1028
2018-05-10T09:17:19.528Z,960
2018-05-10T09:18:19.567Z,936
2018-05-10T09:19:19.866Z,996
2018-05-10T09:20:19.484Z,872
2018-05-10T09:21:19.697Z,908
2018-05-10T09:22:19.679Z,1036
2018-05-10T09:23:19.738Z,1124
2018-05-10T09:24:19.731Z,1328
2018-05-10T09:25:19.793Z,1400
2018-05-10T09:26:20.065Z,1320
2018-05-10T09:27:20.098Z,1328
2018-05-10T09:28:20.133Z,1460
2018-05-10T09:29:19.887Z,1620
2018-05-10T09:30:20.160Z,1736
2018-05-10T09:31:20.182Z,1772
2018-05-10T09:32:20.225Z,1708
2018-05-10T09:33:19.717Z,1712
2018-05-10T09:34:20.013Z,1744
2018-05-10T09:35:20.307Z,1828
2018-05-10T09:36:20.329Z,1884
2018-05-10T09:37:20.062Z,1888
2018-05-10T09:38:20.099Z,1820
2018-05-10T09:39:20.696Z,1856
2018-05-10T09:40:20.424Z,2016
2018-05-10T09:41:20.202Z,2212
2018-05-10T09:42:20.484Z,2372
2018-05-10T09:43:20.505Z,2544
2018-05-10T09:44:20.250Z,2724
2018-05-10T09:45:20.289Z,2804
2018-05-10T09:46:20.853Z,2828
2018-05-10T09:47:20.074Z,2864
2018-05-10T09:48:20.638Z,2872
2018-05-10T09:49:20.143Z,2852
2018-05-10T09:50:20.431Z,2804
2018-05-10T09:51:20.734Z,2716
2018-05-10T09:52:20.528Z,2644
2018-05-10T09:53:20.519Z,2608
2018-05-10T09:54:20.541Z,2632
2018-05-10T09:55:20.843Z,2748
2018-05-10T09:56:20.906Z,2904
2018-05-10T09:57:20.598Z,3004
2018-05-10T09:58:20.919Z,3080
2018-05-10T09:59:20.939Z,3032
2018-05-10T10:00:21.011Z,3012
2018-05-10T10:01:21.008Z,3080
2018-05-10T10:02:20.834Z,3208
2018-05-10T10:03:21.050Z,3296
2018-05-10T10:04:21.094Z,3400
2018-05-10T10:05:20.845Z,3468
2018-05-10T10:06:21.426Z,3472
2018-05-10T10:07:21.190Z,3480
2018-05-10T10:08:20.660Z,3412
2018-05-10T10:09:20.692Z,3356
2018-05-10T10:10:20.998Z,3284
2018-05-10T10:11:21.298Z,3240
2018-05-10T10:12:20.823Z,3204
2018-05-10T10:13:21.351Z,3176
2018-05-10T10:14:21.353Z,3160
2018-05-10T10:15:21.116Z,3168
2018-05-10T10:16:21.430Z,3220
2018-05-10T10:17:21.206Z,3220
2018-05-10T10:18:20.935Z,3276
2018-05-10T10:19:21.328Z,3192
2018-05-10T10:20:21.018Z,3176
2018-05-10T10:21:21.565Z,3088
2018-05-10T10:22:21.081Z,3036
2018-05-10T10:23:21.089Z,3000
2018-05-10T10:24:21.372Z,2936
2018-05-10T10:25:21.994Z,2948
2018-05-10T10:26:21.715Z,2988
2018-05-10T10:27:21.998Z,3016
2018-05-10T10:28:21.485Z,3100
2018-05-10T10:29:21.516Z,3168
2018-05-10T10:30:21.833Z,3200
2018-05-10T10:31:21.871Z,3200
2018-05-10T10:32:21.856Z,3200
2018-05-10T10:33:21.647Z,3184
2018-05-10T10:34:21.667Z,3152
2018-05-10T10:35:21.978Z,3172
2018-05-10T10:36:21.979Z,3288
2018-05-10T10:37:22.103Z,3328
2018-05-10T10:38:21.631Z,3380
2018-05-10T10:39:21.818Z,3428
2018-05-10T10:40:22.181Z,3448
2018-05-10T10:41:22.137Z,3440
2018-05-10T10:42:22.170Z,3420
2018-05-10T10:43:22.227Z,3392
2018-05-10T10:44:21.715Z,3392
2018-05-10T10:45:22.299Z,3376
2018-05-10T10:46:22.298Z,3408
2018-05-10T10:47:21.781Z,3392
2018-05-10T10:48:22.325Z,3376
2018-05-10T10:49:22.376Z,3376
2018-05-10T10:50:22.140Z,3380
2018-05-10T10:51:22.450Z,3412
2018-05-10T10:52:22.462Z,3408
2018-05-10T10:53:22.485Z,3384
2018-05-10T10:54:22.578Z,3432
2018-05-10T10:55:22.535Z,3460
2018-05-10T10:56:22.643Z,3456
2018-05-10T10:57:22.342Z,3484
2018-05-10T10:58:22.424Z,3536
2018-05-10T10:59:22.683Z,3596
2018-05-10T11:00:22.437Z,3540
2018-05-10T11:01:22.455Z,3776
2018-05-10T11:02:22.657Z,3976
2018-05-10T11:03:22.829Z,4056
2018-05-10T11:04:22.843Z,3952
2018-05-10T11:05:22.594Z,3804
2018-05-10T11:06:22.880Z,3660
2018-05-10T11:07:22.625Z,3632
2018-05-10T11:08:22.660Z,3612
2018-05-10T11:09:22.790Z,3588
2018-05-10T11:10:22.995Z,3364
2018-05-10T11:11:22.497Z,3412
2018-05-10T11:12:22.814Z,3280
2018-05-10T11:13:23.100Z,3288
2018-05-10T11:14:23.120Z,3292
2018-05-10T11:15:22.894Z,3184
2018-05-10T11:16:22.910Z,3016
2018-05-10T11:17:23.209Z,2960
2018-05-10T11:18:22.982Z,2960
2018-05-10T11:19:23.312Z,3016
2018-05-10T11:20:23.306Z,3076
2018-05-10T11:21:22.791Z,3080
2018-05-10T11:22:22.813Z,3112
2018-05-10T11:23:23.112Z,3204
2018-05-10T11:24:23.446Z,3380
2018-05-10T11:25:23.457Z,3436
2018-05-10T11:26:23.565Z,3488
2018-05-10T11:27:23.544Z,3436
2018-05-10T11:28:23.274Z,3428
2018-05-10T11:29:23.038Z,3432
2018-05-10T11:30:23.067Z,3440
2018-05-10T11:31:23.639Z,3408
2018-05-10T11:32:23.387Z,3400
2018-05-10T11:33:23.263Z,3396
2018-05-10T11:34:23.294Z,3356
2018-05-10T11:35:23.488Z,3352
2018-05-10T11:36:23.448Z,3308
2018-05-10T11:37:23.630Z,3188
2018-05-10T11:38:23.592Z,3104
2018-05-10T11:39:23.636Z,3008
2018-05-10T11:40:23.660Z,2980
2018-05-10T11:41:23.928Z,2980
2018-05-10T11:42:24.013Z,3064
2018-05-10T11:43:24.022Z,3144
2018-05-10T11:44:24.054Z,3168
2018-05-10T11:45:23.799Z,3180
2018-05-10T11:46:24.096Z,3352
2018-05-10T11:47:23.870Z,3424
2018-05-10T11:48:24.247Z,3484
2018-05-10T11:49:23.954Z,3560
2018-05-10T11:50:24.232Z,3600
2018-05-10T11:51:23.994Z,3624
2018-05-10T11:52:23.741Z,3572
2018-05-10T11:53:24.296Z,3520
2018-05-10T11:54:23.798Z,3432
2018-05-10T11:55:24.138Z,3440
2018-05-10T11:56:24.150Z,3448
2018-05-10T11:57:24.399Z,3488
2018-05-10T11:58:24.215Z,3484
2018-05-10T11:59:24.249Z,3488
2018-05-10T12:00:24.556Z,3476
2018-05-10T12:01:24.579Z,3460
2018-05-10T12:02:24.579Z,3416
2018-05-10T12:03:24.622Z,3396
2018-05-10T12:04:24.126Z,3260
2018-05-10T12:05:24.426Z,3264
2018-05-10T12:06:24.747Z,3176
2018-05-10T12:07:24.783Z,3076
2018-05-10T12:08:24.517Z,3032
2018-05-10T12:09:24.557Z,3004
2018-05-10T12:10:24.873Z,3000
2018-05-10T12:11:24.901Z,3024
2018-05-10T12:12:24.650Z,3112
2018-05-10T12:13:24.975Z,3320
2018-05-10T12:14:24.983Z,3468
2018-05-10T12:15:25.023Z,3524
2018-05-10T12:16:25.027Z,3564
2018-05-10T12:17:25.115Z,3612
2018-05-10T12:18:25.137Z,3684
2018-05-10T12:19:24.755Z,3748
2018-05-10T12:20:25.111Z,3800
2018-05-10T12:21:24.666Z,3796
2018-05-10T12:22:25.240Z,3832
2018-05-10T12:23:24.990Z,3792
2018-05-10T12:24:24.774Z,3736
2018-05-10T12:25:25.070Z,3796
2018-05-10T12:26:25.393Z,3888
2018-05-10T12:27:24.839Z,3904
2018-05-10T12:28:25.454Z,4032
2018-05-10T12:29:25.192Z,4088
2018-05-10T12:30:25.097Z,4092
2018-05-10T12:31:25.543Z,4136
2018-05-10T12:32:25.296Z,4008
2018-05-10T12:33:25.329Z,3956
2018-05-10T12:34:25.666Z,3860
2018-05-10T12:35:24.834Z,3752
2018-05-10T12:36:25.431Z,3788
2018-05-10T12:37:25.778Z,3844
2018-05-10T12:38:25.217Z,3988
2018-05-10T12:39:25.497Z,4060
2018-05-10T12:40:25.560Z,4064
2018-05-10T12:41:25.334Z,4112
2018-05-10T12:42:25.906Z,4248
2018-05-10T12:43:25.384Z,4180
2018-05-10T12:44:25.696Z,4064
2018-05-10T12:45:25.716Z,4076
2018-05-10T12:46:25.755Z,4048
2018-05-10T12:47:25.804Z,3980
2018-05-10T12:48:25.786Z,4304
2018-05-10T12:49:25.294Z,4508
2018-05-10T12:50:26.159Z,4504
2018-05-10T12:51:26.203Z,4320
2018-05-10T12:52:25.938Z,4124
2018-05-10T12:53:26.301Z,3836
2018-05-10T12:54:26.299Z,3868
2018-05-10T12:55:26.320Z,3856
2018-05-10T12:56:26.158Z,3700
2018-05-10T12:57:26.097Z,3488
2018-05-10T12:58:25.943Z,3444
2018-05-10T12:59:26.199Z,3396
2018-05-10T13:00:26.218Z,3312
2018-05-10T13:01:26.519Z,3384
2018-05-10T13:02:26.542Z,3312
2018-05-10T13:03:26.305Z,3068
2018-05-10T13:04:26.353Z,3016
2018-05-10T13:05:26.379Z,3168
2018-05-10T13:06:26.662Z,3200
2018-05-10T13:07:26.455Z,3280
2018-05-10T13:08:26.661Z,3104
2018-05-10T13:09:26.758Z,3012
2018-05-10T13:10:26.536Z,3152
2018-05-10T13:11:26.827Z,3324
2018-05-10T13:12:26.871Z,3472
2018-05-10T13:13:27.165Z,3664
2018-05-10T13:14:26.665Z,3576
2018-05-10T13:15:26.964Z,3604
2018-05-10T13:16:26.455Z,3596
2018-05-10T13:17:26.763Z,3588
2018-05-10T13:18:27.087Z,3704
2018-05-10T13:19:27.251Z,3828
2018-05-10T13:20:26.884Z,3744
2018-05-10T13:21:27.146Z,3544
2018-05-10T13:22:27.194Z,3428
2018-05-10T13:23:26.963Z,3348
2018-05-10T13:24:27.004Z,3296
2018-05-10T13:25:26.735Z,3268
2018-05-10T13:26:27.333Z,3264
2018-05-10T13:27:27.789Z,3260
2018-05-10T13:28:27.384Z,3240
2018-05-10T13:29:27.180Z,3224
2018-05-10T13:30:27.490Z,3224
2018-05-10T13:31:27.204Z,3188
2018-05-10T13:32:27.520Z,3120
2018-05-10T13:33:27.567Z,3028
2018-05-10T13:34:27.608Z,2932
2018-05-10T13:35:27.346Z,2844
2018-05-10T13:36:27.383Z,2764
2018-05-10T13:37:27.134Z,2712
2018-05-10T13:38:27.318Z,2672
2018-05-10T13:39:27.467Z,2632
2018-05-10T13:40:27.795Z,2576
2018-05-10T13:41:27.844Z,2516
2018-05-10T13:42:27.581Z,2464
2018-05-10T13:43:27.905Z,2432
2018-05-10T13:44:27.779Z,2392
2018-05-10T13:45:27.416Z,2372
2018-05-10T13:46:27.992Z,2352
2018-05-10T13:47:28.791Z,2312
2018-05-10T13:48:27.768Z,2272
2018-05-10T13:49:27.812Z,2228